Time;durP1;ratioP1;P1;durP2;ratioP2;P2;SDS_P1;SDS_P2;PMS_P1;PMS_P2;Temp;Humidity;BMP_temperature;BMP_pressure;BME280_temperature;BME280_humidity;BME280_pressure;Samples;Min_cycle;Max_cycle;Signal;HPM_P1;HPM_P2
2022/04/03 00:01:34;;;;;;;7.50;4.90;;;;;;;;;;5114274;28;20401;-57
2022/04/03 00:04:00;;;;;;;8.13;4.90;;;;;;;;;;5114096;28;20479;-61
2022/04/03 00:06:27;;;;;;;5.57;5.10;;;;;;;;;;5114222;28;20407;-58
2022/04/03 00:08:53;;;;;;;5.20;4.70;;;;;;;;;;5114040;28;20405;-56
2022/04/03 00:11:20;;;;;;;7.57;5.07;;;;;;;;;;5114235;28;20746;-58
2022/04/03 00:13:48;;;;;;;4.70;4.10;;;;;;;;;;5095984;28;20453;-62
2022/04/03 00:16:14;;;;;;;6.43;4.90;;;;;;;;;;5113969;28;21037;-55
2022/04/03 00:18:40;;;;;;;5.73;5.17;;;;;;;;;;5114001;28;20417;-56
2022/04/03 00:21:09;;;;;;;7.00;4.90;;;;;;;;;;5113641;28;20551;-59
2022/04/03 00:23:35;;;;;;;4.60;4.20;;;;;;;;;;5113684;28;20475;-58
2022/04/03 00:26:01;;;;;;;10.17;5.00;;;;;;;;;;5095528;28;20901;-62
2022/04/03 00:28:30;;;;;;;5.20;4.67;;;;;;;;;;5113749;28;20405;-57
2022/04/03 00:30:56;;;;;;;6.23;4.37;;;;;;;;;;5113845;28;20503;-57
2022/04/03 00:33:22;;;;;;;6.53;4.60;;;;;;;;;;5113647;28;20436;-60
2022/04/03 00:35:50;;;;;;;4.40;4.03;;;;;;;;;;5095490;28;20747;-57
2022/04/03 00:38:16;;;;;;;4.13;3.83;;;;;;;;;;5113939;28;20409;-59
2022/04/03 00:40:44;;;;;;;4.50;4.07;;;;;;;;;;5113577;28;20405;-59
2022/04/03 00:43:11;;;;;;;4.50;4.20;;;;;;;;;;5113455;28;20583;-55
2022/04/03 00:45:37;;;;;;;4.50;4.10;;;;;;;;;;5095120;28;20748;-58
2022/04/03 00:48:03;;;;;;;4.37;4.03;;;;;;;;;;5094886;28;20908;-59
2022/04/03 00:50:29;;;;;;;6.03;4.33;;;;;;;;;;5113326;28;20466;-59
2022/04/03 00:52:58;;;;;;;4.00;3.60;;;;;;;;;;5113343;28;20441;-58
2022/04/03 00:55:24;;;;;;;4.20;3.90;;;;;;;;;;5113391;28;20436;-58
2022/04/03 00:57:50;;;;;;;9.50;3.93;;;;;;;;;;5113546;28;20432;-56
2022/04/03 01:00:17;;;;;;;4.43;4.00;;;;;;;;;;5113504;28;20481;-61
2022/04/03 01:02:43;;;;;;;4.07;3.77;;;;;;;;;;5113326;28;20843;-55
2022/04/03 01:05:10;;;;;;;4.63;4.23;;;;;;;;;;5113129;28;20973;-60
2022/04/03 01:07:36;;;;;;;4.20;3.70;;;;;;;;;;5113445;28;20408;-64
2022/04/03 01:10:06;;;;;;;4.40;4.10;;;;;;;;;;5094744;28;20429;-61
2022/04/03 01:12:32;;;;;;;4.33;3.93;;;;;;;;;;5113129;28;20405;-62
2022/04/03 01:14:58;;;;;;;4.40;3.80;;;;;;;;;;5113049;28;20413;-62
2022/04/03 01:17:24;;;;;;;3.93;3.63;;;;;;;;;;5113153;28;20465;-67
2022/04/03 01:19:53;;;;;;;11.83;4.03;;;;;;;;;;5113042;28;20464;-57
2022/04/03 01:22:22;;;;;;;4.30;4.00;;;;;;;;;;5094795;28;20416;-55
2022/04/03 01:24:48;;;;;;;4.10;3.80;;;;;;;;;;5113113;28;20409;-62
2022/04/03 01:27:14;;;;;;;4.37;3.97;;;;;;;;;;5112917;28;20491;-66
2022/04/03 01:29:40;;;;;;;4.07;3.50;;;;;;;;;;5113040;28;20554;-57
2022/04/03 01:32:07;;;;;;;4.03;3.80;;;;;;;;;;5112933;28;20401;-61
2022/04/03 01:34:33;;;;;;;16.73;4.70;;;;;;;;;;5094557;28;20442;-56
2022/04/03 01:37:01;;;;;;;4.50;4.20;;;;;;;;;;5112889;28;20477;-56
2022/04/03 01:39:27;;;;;;;5.27;4.20;;;;;;;;;;5112911;28;20411;-55
2022/04/03 01:41:53;;;;;;;4.37;4.07;;;;;;;;;;5112851;28;20504;-58
2022/04/03 01:44:21;;;;;;;4.60;4.20;;;;;;;;;;5112846;28;20527;-63
2022/04/03 01:46:47;;;;;;;5.93;3.97;;;;;;;;;;5094631;28;20443;-63
2022/04/03 01:49:13;;;;;;;3.07;2.87;;;;;;;;;;5094542;28;20420;-64
2022/04/03 01:51:39;;;;;;;4.37;3.97;;;;;;;;;;5112839;28;20889;-60
2022/04/03 01:54:05;;;;;;;5.40;4.90;;;;;;;;;;5094625;28;20837;-58
2022/04/03 01:56:34;;;;;;;3.90;3.50;;;;;;;;;;5112766;28;20457;-60
2022/04/03 01:59:00;;;;;;;4.03;3.83;;;;;;;;;;5112871;28;20417;-61
2022/04/03 02:01:26;;;;;;;11.43;4.30;;;;;;;;;;5114859;28;20432;-58
2022/04/03 02:03:52;;;;;;;4.93;4.50;;;;;;;;;;5116606;28;20472;-56
2022/04/03 02:06:18;;;;;;;4.00;3.77;;;;;;;;;;5098597;28;20554;-62
2022/04/03 02:08:45;;;;;;;8.70;4.10;;;;;;;;;;5098215;28;20420;-55
2022/04/03 02:11:11;;;;;;;4.13;3.83;;;;;;;;;;5116652;28;20841;-54
2022/04/03 02:13:40;;;;;;;4.23;3.83;;;;;;;;;;5116517;28;20432;-54
2022/04/03 02:16:06;;;;;;;5.67;4.13;;;;;;;;;;5116531;28;20396;-54
2022/04/03 02:18:32;;;;;;;4.30;4.00;;;;;;;;;;5116410;28;20413;-55
2022/04/03 02:20:58;;;;;;;5.80;4.43;;;;;;;;;;5116241;28;20535;-54
2022/04/03 02:23:24;;;;;;;4.43;4.00;;;;;;;;;;5116288;28;20545;-53
2022/04/03 02:25:52;;;;;;;5.20;4.17;;;;;;;;;;5116431;28;20766;-54
2022/04/03 02:28:18;;;;;;;6.30;5.10;;;;;;;;;;5116405;28;20409;-59
2022/04/03 02:30:44;;;;;;;5.70;4.47;;;;;;;;;;5116270;28;20491;-56
2022/04/03 02:33:10;;;;;;;10.33;4.80;;;;;;;;;;5116139;28;20436;-56
2022/04/03 02:35:36;;;;;;;5.60;4.13;;;;;;;;;;5116064;28;20929;-55
2022/04/03 02:38:02;;;;;;;6.27;4.30;;;;;;;;;;5116096;28;20815;-59
2022/04/03 02:40:29;;;;;;;10.77;4.93;;;;;;;;;;5115977;28;20408;-57
2022/04/03 02:42:55;;;;;;;7.70;4.70;;;;;;;;;;5115937;28;20821;-56
2022/04/03 02:45:21;;;;;;;7.87;4.47;;;;;;;;;;5115944;28;20777;-55
2022/04/03 02:47:51;;;;;;;6.33;4.90;;;;;;;;;;5116124;28;20867;-58
2022/04/03 02:50:19;;;;;;;6.33;4.27;;;;;;;;;;5116141;28;20499;-57
2022/04/03 02:52:49;;;;;;;10.80;5.07;;;;;;;;;;5115787;28;20859;-55
2022/04/03 02:55:15;;;;;;;5.50;4.90;;;;;;;;;;5115657;28;20413;-58
2022/04/03 02:57:41;;;;;;;9.77;5.53;;;;;;;;;;5115610;28;20401;-56
2022/04/03 03:00:08;;;;;;;3.80;3.57;;;;;;;;;;5115646;28;20416;-56
2022/04/03 03:02:34;;;;;;;5.47;4.43;;;;;;;;;;5096816;28;20494;-57
2022/04/03 03:05:00;;;;;;;5.20;4.30;;;;;;;;;;5115489;28;20420;-55
2022/04/03 03:07:49;;;;;;;6.53;4.20;;;;;;;;;;5115422;28;20470;-61
2022/04/03 03:10:17;;;;;;;9.00;4.57;;;;;;;;;;5115454;28;20393;-55
2022/04/03 03:12:43;;;;;;;4.83;4.17;;;;;;;;;;5115072;28;20401;-56
2022/04/03 03:15:10;;;;;;;6.97;4.53;;;;;;;;;;5115186;28;20488;-56
2022/04/03 03:17:36;;;;;;;4.63;4.10;;;;;;;;;;5115349;28;20393;-56
2022/04/03 03:20:02;;;;;;;5.50;4.40;;;;;;;;;;5115020;28;20524;-56
2022/04/03 03:22:28;;;;;;;4.67;4.27;;;;;;;;;;5096738;28;20406;-57
2022/04/03 03:24:54;;;;;;;10.43;4.63;;;;;;;;;;5115105;28;20412;-58
2022/04/03 03:27:20;;;;;;;9.30;4.33;;;;;;;;;;5096899;28;20784;-58
2022/04/03 03:29:46;;;;;;;4.47;4.07;;;;;;;;;;5115284;28;20506;-58
2022/04/03 03:32:12;;;;;;;11.73;4.03;;;;;;;;;;5115056;28;20401;-56
2022/04/03 03:34:41;;;;;;;5.37;4.33;;;;;;;;;;5115150;28;20502;-58
2022/04/03 03:37:08;;;;;;;5.07;4.00;;;;;;;;;;5115106;28;20739;-57
2022/04/03 03:39:34;;;;;;;5.13;3.80;;;;;;;;;;5096731;28;20420;-55
2022/04/03 03:42:00;;;;;;;9.10;4.13;;;;;;;;;;5096669;28;20512;-57
2022/04/03 03:44:26;;;;;;;7.37;4.00;;;;;;;;;;5114766;28;20957;-57
2022/04/03 03:46:52;;;;;;;5.40;4.13;;;;;;;;;;5114664;28;20413;-55
2022/04/03 03:49:19;;;;;;;4.67;4.10;;;;;;;;;;5114992;28;20931;-59
2022/04/03 03:51:46;;;;;;;4.57;4.13;;;;;;;;;;5114565;28;20409;-59
2022/04/03 03:54:12;;;;;;;6.13;4.37;;;;;;;;;;5114581;28;20409;-53
2022/04/03 03:56:38;;;;;;;5.57;4.40;;;;;;;;;;5096097;28;20415;-56
2022/04/03 03:59:08;;;;;;;6.00;4.10;;;;;;;;;;5114497;28;20440;-55
2022/04/03 04:01:35;;;;;;;4.90;3.93;;;;;;;;;;5114354;28;20404;-54
2022/04/03 04:04:01;;;;;;;8.77;4.67;;;;;;;;;;5114133;28;20494;-56
2022/04/03 04:06:27;;;;;;;6.27;3.93;;;;;;;;;;5114174;28;20405;-57
2022/04/03 04:08:53;;;;;;;5.70;4.20;;;;;;;;;;5114181;28;20462;-56
2022/04/03 04:11:19;;;;;;;4.87;4.27;;;;;;;;;;5114393;28;20425;-54
2022/04/03 04:13:45;;;;;;;4.70;3.93;;;;;;;;;;5114055;28;20494;-61
2022/04/03 04:16:15;;;;;;;6.70;5.27;;;;;;;;;;5114119;28;20425;-59
2022/04/03 04:18:42;;;;;;;10.03;4.20;;;;;;;;;;5113988;28;20973;-56
2022/04/03 04:21:10;;;;;;;4.83;4.33;;;;;;;;;;5113729;28;20491;-56
2022/04/03 04:23:36;;;;;;;9.80;4.90;;;;;;;;;;5113093;28;21003;-58
2022/04/03 04:26:02;;;;;;;5.40;4.37;;;;;;;;;;5113764;28;20408;-57
2022/04/03 04:28:28;;;;;;;4.67;4.27;;;;;;;;;;5113658;28;20424;-62
2022/04/03 04:30:57;;;;;;;7.73;5.37;;;;;;;;;;5095417;28;20417;-56
2022/04/03 04:33:23;;;;;;;7.47;4.93;;;;;;;;;;5095652;28;20759;-57
2022/04/03 04:35:50;;;;;;;4.67;4.20;;;;;;;;;;5113834;28;20417;-55
2022/04/03 04:38:17;;;;;;;7.83;4.90;;;;;;;;;;5113732;28;20407;-54
2022/04/03 04:40:43;;;;;;;9.73;5.07;;;;;;;;;;5113620;28;20754;-57
2022/04/03 04:43:12;;;;;;;9.90;5.03;;;;;;;;;;5113514;28;20464;-55
2022/04/03 04:45:38;;;;;;;11.20;6.00;;;;;;;;;;5113495;28;20496;-54
2022/04/03 04:48:05;;;;;;;11.57;6.13;;;;;;;;;;5113495;28;20409;-54
2022/04/03 04:50:31;;;;;;;11.83;6.30;;;;;;;;;;5113460;28;20408;-58
2022/04/03 04:52:57;;;;;;;7.00;5.73;;;;;;;;;;5113405;28;20383;-57
2022/04/03 04:55:24;;;;;;;9.53;5.60;;;;;;;;;;5113308;28;20496;-58
2022/04/03 04:57:51;;;;;;;6.87;4.47;;;;;;;;;;5113580;28;20410;-57
2022/04/03 05:00:17;;;;;;;4.73;4.33;;;;;;;;;;5113638;28;20396;-62
2022/04/03 05:02:46;;;;;;;5.43;4.43;;;;;;;;;;5113294;28;20452;-64
2022/04/03 05:05:13;;;;;;;5.90;4.63;;;;;;;;;;5113224;28;21032;-55
2022/04/03 05:07:39;;;;;;;6.00;4.57;;;;;;;;;;5113415;28;20401;-55
2022/04/03 05:10:06;;;;;;;5.97;4.97;;;;;;;;;;5113238;28;20412;-61
2022/04/03 05:12:32;;;;;;;4.90;4.37;;;;;;;;;;5113235;28;20412;-55
2022/04/03 05:14:59;;;;;;;9.43;4.30;;;;;;;;;;5094732;28;20830;-55
2022/04/03 05:17:26;;;;;;;6.50;4.87;;;;;;;;;;5113207;28;20492;-58
2022/04/03 05:19:53;;;;;;;8.47;5.10;;;;;;;;;;5094611;28;20477;-61
2022/04/03 05:22:23;;;;;;;6.33;4.80;;;;;;;;;;5094923;28;20454;-60
2022/04/03 05:24:49;;;;;;;7.47;5.63;;;;;;;;;;5113275;28;20450;-58
2022/04/03 05:27:15;;;;;;;11.27;7.97;;;;;;;;;;5113039;28;20409;-56
2022/04/03 05:29:41;;;;;;;12.40;4.93;;;;;;;;;;5113090;28;20839;-56
2022/04/03 05:32:07;;;;;;;7.00;5.27;;;;;;;;;;5113084;28;20462;-54
2022/04/03 05:34:33;;;;;;;7.37;4.93;;;;;;;;;;5113605;28;20371;-59
2022/04/03 05:36:59;;;;;;;6.10;5.13;;;;;;;;;;5117149;28;20404;-59
2022/04/03 05:39:25;;;;;;;7.00;4.93;;;;;;;;;;5117078;28;20855;-57
2022/04/03 05:41:54;;;;;;;5.87;4.43;;;;;;;;;;5117096;28;20437;-57
2022/04/03 05:44:20;;;;;;;5.53;5.03;;;;;;;;;;5117163;28;20487;-56
2022/04/03 05:46:46;;;;;;;8.63;5.40;;;;;;;;;;5117251;28;20897;-58
2022/04/03 05:49:12;;;;;;;9.77;4.80;;;;;;;;;;5116754;28;20416;-59
2022/04/03 05:51:38;;;;;;;5.00;4.50;;;;;;;;;;5116881;28;20412;-58
2022/04/03 05:54:04;;;;;;;5.40;4.90;;;;;;;;;;5116856;28;20404;-59
2022/04/03 05:56:31;;;;;;;6.90;5.30;;;;;;;;;;5116671;28;20405;-57
2022/04/03 05:58:57;;;;;;;7.37;5.17;;;;;;;;;;5116802;28;20409;-57
2022/04/03 06:01:23;;;;;;;4.57;4.17;;;;;;;;;;5116597;28;20411;-56
2022/04/03 06:03:50;;;;;;;5.50;4.57;;;;;;;;;;5116745;28;20495;-56
2022/04/03 06:06:16;;;;;;;6.10;5.40;;;;;;;;;;5116526;28;20495;-59
2022/04/03 06:08:43;;;;;;;8.23;6.10;;;;;;;;;;5116768;28;20417;-57
2022/04/03 06:11:09;;;;;;;8.40;6.33;;;;;;;;;;5116677;28;20404;-60
2022/04/03 06:13:35;;;;;;;10.17;5.20;;;;;;;;;;5116565;28;20436;-60
2022/04/03 06:16:02;;;;;;;5.37;4.87;;;;;;;;;;5116628;28;20409;-57
2022/04/03 06:18:28;;;;;;;5.10;4.70;;;;;;;;;;5116494;28;20775;-56
2022/04/03 06:20:54;;;;;;;4.63;4.17;;;;;;;;;;5115956;28;20457;-57
2022/04/03 06:23:21;;;;;;;4.93;4.30;;;;;;;;;;5098080;28;20566;-62
2022/04/03 06:25:53;;;;;;;7.63;4.90;;;;;;;;;;5116545;28;20449;-55
2022/04/03 06:28:19;;;;;;;7.27;4.40;;;;;;;;;;5116378;28;20431;-60
2022/04/03 06:30:46;;;;;;;5.90;5.30;;;;;;;;;;5116095;28;20439;-59
2022/04/03 06:33:12;;;;;;;6.87;5.07;;;;;;;;;;5116113;28;20412;-58
2022/04/03 06:35:38;;;;;;;4.97;4.53;;;;;;;;;;5115971;28;20401;-64
2022/04/03 06:38:05;;;;;;;4.53;4.23;;;;;;;;;;5115910;28;20738;-61
2022/04/03 06:40:33;;;;;;;5.10;4.60;;;;;;;;;;5115813;28;20401;-57
2022/04/03 06:43:00;;;;;;;6.77;4.60;;;;;;;;;;5115646;28;20456;-60
2022/04/03 06:45:26;;;;;;;10.70;5.53;;;;;;;;;;5115728;28;20437;-58
2022/04/03 06:47:52;;;;;;;7.40;6.10;;;;;;;;;;5115085;28;20826;-62
2022/04/03 06:50:20;;;;;;;5.50;5.10;;;;;;;;;;5115788;28;20431;-61
2022/04/03 06:52:46;;;;;;;4.70;4.30;;;;;;;;;;5115716;28;20412;-64
2022/04/03 06:55:13;;;;;;;6.50;4.97;;;;;;;;;;5115531;28;20412;-61
2022/04/03 06:57:39;;;;;;;5.80;4.83;;;;;;;;;;5115687;28;20878;-58
2022/04/03 07:00:06;;;;;;;4.27;3.93;;;;;;;;;;5115472;28;20409;-64
2022/04/03 07:02:32;;;;;;;7.97;5.07;;;;;;;;;;5115389;28;20409;-60
2022/04/03 07:04:58;;;;;;;7.23;4.30;;;;;;;;;;5115363;28;20440;-65
2022/04/03 07:07:27;;;;;;;4.47;4.17;;;;;;;;;;5115321;28;20397;-67
2022/04/03 07:09:53;;;;;;;4.67;4.27;;;;;;;;;;5115472;28;20487;-57
2022/04/03 07:12:20;;;;;;;5.23;4.60;;;;;;;;;;5115493;28;20408;-55
2022/04/03 07:14:46;;;;;;;5.67;4.67;;;;;;;;;;5115229;28;20795;-58
2022/04/03 07:17:12;;;;;;;5.20;4.70;;;;;;;;;;5115411;28;20405;-58
2022/04/03 07:19:38;;;;;;;5.23;4.83;;;;;;;;;;5115011;28;20804;-58
2022/04/03 07:22:04;;;;;;;4.40;4.10;;;;;;;;;;5115201;28;20408;-58
2022/04/03 07:24:31;;;;;;;6.10;5.33;;;;;;;;;;5114890;28;20521;-57
2022/04/03 07:26:57;;;;;;;5.13;4.33;;;;;;;;;;5114928;28;20413;-56
2022/04/03 07:29:24;;;;;;;5.40;4.87;;;;;;;;;;5115041;28;20409;-59
2022/04/03 07:31:50;;;;;;;5.20;4.73;;;;;;;;;;5115049;28;20761;-59
2022/04/03 07:34:17;;;;;;;5.03;4.57;;;;;;;;;;5115055;28;20436;-57
2022/04/03 07:36:46;;;;;;;5.87;5.27;;;;;;;;;;5114674;28;20409;-63
2022/04/03 07:39:12;;;;;;;6.80;4.20;;;;;;;;;;5114691;28;20970;-60
2022/04/03 07:41:39;;;;;;;4.67;4.33;;;;;;;;;;5114769;28;20432;-62
2022/04/03 07:44:05;;;;;;;4.90;4.37;;;;;;;;;;5114568;28;20475;-61
2022/04/03 07:46:33;;;;;;;5.43;4.80;;;;;;;;;;5096707;28;20417;-64
2022/04/03 07:48:59;;;;;;;7.87;4.80;;;;;;;;;;5114528;28;20416;-67
2022/04/03 07:51:26;;;;;;;5.30;4.83;;;;;;;;;;5114508;28;20994;-65
2022/04/03 07:53:53;;;;;;;7.30;4.93;;;;;;;;;;5114425;28;20424;-65
2022/04/03 07:56:19;;;;;;;5.07;4.67;;;;;;;;;;5114528;28;20405;-63
2022/04/03 07:58:45;;;;;;;9.20;6.20;;;;;;;;;;5113267;28;20803;-63
2022/04/03 08:01:11;;;;;;;10.37;6.97;;;;;;;;;;5114116;28;20912;-66
2022/04/03 08:03:37;;;;;;;5.27;4.77;;;;;;;;;;5114191;28;20468;-66
2022/04/03 08:06:06;;;;;;;4.83;4.50;;;;;;;;;;5114180;28;20401;-65
2022/04/03 08:08:32;;;;;;;5.30;4.60;;;;;;;;;;5114259;28;20405;-66
2022/04/03 08:10:58;;;;;;;4.83;4.43;;;;;;;;;;5114123;28;20466;-67
2022/04/03 08:13:24;;;;;;;5.33;4.93;;;;;;;;;;5113965;28;20506;-67
2022/04/03 08:15:50;;;;;;;6.60;5.20;;;;;;;;;;5114181;28;20901;-64
2022/04/03 08:18:17;;;;;;;6.77;5.03;;;;;;;;;;5114199;28;20405;-66
2022/04/03 08:20:57;;;;;;;5.30;4.80;;;;;;;;;;5067788;27;1313159;-58
2022/04/03 08:23:23;;;;;;;4.90;4.50;;;;;;;;;;5090236;28;20626;-54
2022/04/03 08:25:52;;;;;;;6.20;5.07;;;;;;;;;;5090239;28;20443;-59
2022/04/03 08:28:18;;;;;;;3.30;3.20;;;;;;;;;;5090240;28;20909;-63
2022/04/03 08:30:44;;;;;;;4.50;4.20;;;;;;;;;;5090062;28;20416;-62
2022/04/03 08:33:10;;;;;;;6.40;4.53;;;;;;;;;;5090040;28;20450;-61
2022/04/03 08:35:40;;;;;;;4.50;4.20;;;;;;;;;;5089947;28;20975;-65
2022/04/03 08:38:06;;;;;;;4.70;4.40;;;;;;;;;;5088611;28;21000;-63
2022/04/03 08:40:33;;;;;;;5.10;4.17;;;;;;;;;;5088607;28;20523;-63
2022/04/03 08:43:00;;;;;;;4.73;4.40;;;;;;;;;;5088429;28;20418;-64
2022/04/03 08:45:26;;;;;;;4.90;4.53;;;;;;;;;;5089756;28;20781;-58
2022/04/03 08:47:53;;;;;;;4.90;4.60;;;;;;;;;;5089836;28;20894;-59
2022/04/03 08:50:20;;;;;;;5.50;4.53;;;;;;;;;;5089714;28;20418;-61
2022/04/03 08:52:51;;;;;;;4.20;3.90;;;;;;;;;;5089626;28;20405;-64
2022/04/03 08:55:18;;;;;;;4.40;4.10;;;;;;;;;;5089568;28;20417;-59
2022/04/03 08:57:44;;;;;;;4.53;4.17;;;;;;;;;;5089299;28;20495;-60
2022/04/03 09:00:13;;;;;;;5.00;4.60;;;;;;;;;;5089249;28;20845;-63
2022/04/03 09:02:39;;;;;;;3.90;3.80;;;;;;;;;;5088127;28;20418;-63
2022/04/03 09:05:06;;;;;;;4.63;4.23;;;;;;;;;;5088079;28;20420;-65
2022/04/03 09:07:32;;;;;;;4.23;4.03;;;;;;;;;;5089184;28;20402;-65
2022/04/03 09:09:59;;;;;;;4.37;4.07;;;;;;;;;;5087934;28;20777;-61
2022/04/03 09:12:26;;;;;;;4.03;3.73;;;;;;;;;;5089266;28;20455;-66
2022/04/03 09:14:54;;;;;;;3.80;3.60;;;;;;;;;;5089112;28;20409;-61
2022/04/03 09:17:42;;;;;;;3.77;3.57;;;;;;;;;;5088002;28;20476;-63
2022/04/03 09:20:12;;;;;;;4.03;3.80;;;;;;;;;;5088798;28;20477;-62
2022/04/03 09:22:39;;;;;;;3.80;3.50;;;;;;;;;;5088970;28;20906;-64
2022/04/03 09:25:06;;;;;;;4.10;3.80;;;;;;;;;;5089007;28;20410;-64
2022/04/03 09:27:52;;;;;;;3.33;3.03;;;;;;;;;;5088923;28;20410;-66
2022/04/03 09:30:19;;;;;;;3.70;3.50;;;;;;;;;;5086117;28;20399;-66
2022/04/03 09:32:48;;;;;;;4.63;4.40;;;;;;;;;;5074019;28;20495;-65
2022/04/03 09:35:15;;;;;;;4.23;3.93;;;;;;;;;;5075320;28;20403;-60
2022/04/03 09:38:01;;;;;;;3.90;3.60;;;;;;;;;;5075314;28;20402;-65
2022/04/03 09:40:31;;;;;;;4.70;4.43;;;;;;;;;;5075025;28;20466;-62
2022/04/03 09:43:15;;;;;;;3.33;3.17;;;;;;;;;;5075448;28;20406;-66
2022/04/03 09:45:45;;;;;;;3.97;3.67;;;;;;;;;;5075276;28;20418;-61
2022/04/03 09:48:20;;;;;;;4.27;4.00;;;;;;;;;;5075041;28;20936;-66
2022/04/03 09:51:00;;;;;;;3.90;3.70;;;;;;;;;;5075129;28;20957;-58
2022/04/03 09:53:30;;;;;;;4.57;4.37;;;;;;;;;;5075044;28;20404;-55
2022/04/03 09:55:56;;;;;;;4.23;3.93;;;;;;;;;;5074942;28;20407;-56
2022/04/03 09:58:23;;;;;;;12.93;4.63;;;;;;;;;;5074992;28;20407;-55
2022/04/03 10:00:49;;;;;;;3.50;3.30;;;;;;;;;;5075041;28;20419;-57
2022/04/03 10:03:16;;;;;;;4.53;4.13;;;;;;;;;;5074929;28;20403;-66
2022/04/03 10:05:43;;;;;;;4.33;4.03;;;;;;;;;;5074713;28;20402;-62
2022/04/03 10:08:09;;;;;;;3.80;3.60;;;;;;;;;;5074688;28;20406;-66
2022/04/03 10:10:35;;;;;;;4.30;3.83;;;;;;;;;;5074894;28;20409;-59
2022/04/03 10:13:03;;;;;;;4.20;4.00;;;;;;;;;;5073403;28;20461;-57
2022/04/03 10:15:29;;;;;;;4.60;4.10;;;;;;;;;;5074976;28;20800;-61
2022/04/03 10:17:56;;;;;;;4.27;4.03;;;;;;;;;;5074498;28;20410;-64
2022/04/03 10:20:25;;;;;;;3.60;3.50;;;;;;;;;;5074338;28;20474;-61
2022/04/03 10:22:54;;;;;;;4.70;4.40;;;;;;;;;;5074626;28;20948;-57
2022/04/03 10:25:23;;;;;;;5.73;4.17;;;;;;;;;;5074658;28;20950;-62
2022/04/03 10:27:50;;;;;;;3.87;3.67;;;;;;;;;;5074663;28;20902;-62
2022/04/03 10:30:19;;;;;;;4.80;3.90;;;;;;;;;;5074336;28;20411;-60
2022/04/03 10:32:59;;;;;;;4.50;4.20;;;;;;;;;;5074312;28;20411;-59
2022/04/03 10:35:25;;;;;;;4.57;4.17;;;;;;;;;;5072899;28;20426;-59
2022/04/03 10:38:02;;;;;;;4.03;3.90;;;;;;;;;;5074275;28;20418;-57
2022/04/03 10:40:29;;;;;;;3.67;3.47;;;;;;;;;;5074023;28;20965;-59
2022/04/03 10:43:03;;;;;;;4.60;4.30;;;;;;;;;;5073051;28;20406;-60
2022/04/03 10:45:35;;;;;;;4.70;4.10;;;;;;;;;;5073871;28;20406;-58
2022/04/03 10:48:19;;;;;;;4.50;4.23;;;;;;;;;;5074050;28;20902;-56
2022/04/03 10:51:05;;;;;;;4.37;4.13;;;;;;;;;;5072571;28;20559;-53
2022/04/03 10:53:51;;;;;;;4.07;3.87;;;;;;;;;;5073756;28;20411;-56
2022/04/03 10:56:28;;;;;;;5.07;4.67;;;;;;;;;;5072481;28;20498;-61
2022/04/03 10:58:55;;;;;;;4.10;4.00;;;;;;;;;;5073646;28;20549;-67
2022/04/03 11:01:31;;;;;;;3.60;3.40;;;;;;;;;;5073857;28;20410;-63
2022/04/03 11:04:13;;;;;;;4.10;3.90;;;;;;;;;;5072384;28;20494;-67
2022/04/03 11:06:45;;;;;;;4.60;4.20;;;;;;;;;;5073579;28;20437;-66
2022/04/03 11:09:12;;;;;;;3.90;3.73;;;;;;;;;;5073553;28;20406;-58
2022/04/03 11:11:38;;;;;;;4.23;3.93;;;;;;;;;;5073551;28;20407;-63
2022/04/03 11:14:08;;;;;;;4.47;4.17;;;;;;;;;;5072142;28;20497;-60
2022/04/03 11:16:53;;;;;;;4.40;4.10;;;;;;;;;;5072183;28;20509;-63
2022/04/03 11:19:33;;;;;;;6.50;4.30;;;;;;;;;;5073181;28;20552;-60
2022/04/03 11:22:00;;;;;;;4.33;4.03;;;;;;;;;;5073338;28;20446;-59
2022/04/03 11:24:27;;;;;;;4.00;3.70;;;;;;;;;;5073282;28;20414;-64
2022/04/03 11:26:53;;;;;;;4.20;4.00;;;;;;;;;;5071903;28;20938;-63
2022/04/03 11:29:19;;;;;;;4.33;4.13;;;;;;;;;;5073457;28;20403;-59
2022/04/03 11:31:46;;;;;;;4.47;4.17;;;;;;;;;;5073055;28;20407;-58
2022/04/03 11:34:12;;;;;;;4.30;4.10;;;;;;;;;;5073132;28;20953;-56
2022/04/03 11:36:38;;;;;;;4.00;3.80;;;;;;;;;;5072964;28;20786;-60
2022/04/03 11:39:10;;;;;;;4.13;3.93;;;;;;;;;;5072996;28;20479;-56
2022/04/03 11:41:38;;;;;;;6.40;3.97;;;;;;;;;;5072964;28;20419;-54
2022/04/03 11:44:17;;;;;;;3.93;3.73;;;;;;;;;;5072927;28;20407;-58
2022/04/03 11:46:45;;;;;;;5.97;4.10;;;;;;;;;;5072817;28;20450;-58
2022/04/03 11:49:15;;;;;;;4.20;4.00;;;;;;;;;;5072808;28;20449;-59
2022/04/03 11:51:41;;;;;;;4.53;4.33;;;;;;;;;;5072848;28;20953;-62
2022/04/03 11:54:07;;;;;;;4.37;4.17;;;;;;;;;;5072504;28;20545;-57
2022/04/03 11:56:35;;;;;;;4.60;4.40;;;;;;;;;;5072733;28;20415;-58
2022/04/03 11:59:03;;;;;;;4.70;4.50;;;;;;;;;;5072669;28;20462;-60
2022/04/03 12:01:30;;;;;;;6.17;5.23;;;;;;;;;;5072665;28;20411;-55
2022/04/03 12:04:06;;;;;;;4.50;4.30;;;;;;;;;;5071420;28;20447;-60
2022/04/03 12:06:32;;;;;;;4.50;4.30;;;;;;;;;;5071475;28;20426;-63
2022/04/03 12:08:58;;;;;;;4.70;4.40;;;;;;;;;;5071414;28;20801;-61
2022/04/03 12:11:24;;;;;;;4.40;4.10;;;;;;;;;;5072619;28;20407;-62
2022/04/03 12:13:54;;;;;;;5.03;4.73;;;;;;;;;;5071564;28;20808;-60
2022/04/03 12:16:24;;;;;;;4.53;4.37;;;;;;;;;;5072780;28;20403;-59
2022/04/03 12:18:54;;;;;;;4.40;4.20;;;;;;;;;;5072509;28;20486;-61
2022/04/03 12:21:20;;;;;;;4.43;4.23;;;;;;;;;;5072601;28;20422;-60
2022/04/03 12:24:09;;;;;;;4.43;4.23;;;;;;;;;;5071382;28;20490;-58
2022/04/03 12:26:35;;;;;;;4.07;3.87;;;;;;;;;;5072462;28;20918;-56
2022/04/03 12:29:01;;;;;;;4.73;4.33;;;;;;;;;;5072385;28;20422;-62
2022/04/03 12:31:28;;;;;;;4.30;4.10;;;;;;;;;;5071190;28;20503;-61
2022/04/03 12:34:07;;;;;;;4.87;4.57;;;;;;;;;;5072309;28;20411;-64
2022/04/03 12:36:40;;;;;;;4.60;4.27;;;;;;;;;;5072359;28;20410;-56
2022/04/03 12:39:26;;;;;;;4.10;3.90;;;;;;;;;;5070871;28;20473;-58
2022/04/03 12:41:52;;;;;;;3.97;3.80;;;;;;;;;;5072098;28;20886;-58
2022/04/03 12:44:18;;;;;;;5.13;4.83;;;;;;;;;;5072672;28;20429;-61
2022/04/03 12:46:45;;;;;;;4.57;4.30;;;;;;;;;;5072305;28;20430;-58
2022/04/03 12:49:20;;;;;;;4.10;4.00;;;;;;;;;;5072188;28;20419;-54
2022/04/03 12:51:47;;;;;;;4.83;4.53;;;;;;;;;;5072350;28;20417;-56
2022/04/03 12:54:13;;;;;;;4.87;4.47;;;;;;;;;;5072266;28;20414;-57
2022/04/03 12:59:41;;;;;;;4.83;4.50;;;;;;;;;;5017719;28;20964;-55
2022/04/03 13:02:07;;;;;;;4.30;4.10;;;;;;;;;;5072588;28;20828;-59
2022/04/03 13:04:34;;;;;;;6.50;5.13;;;;;;;;;;5072836;28;20398;-59
2022/04/03 13:07:00;;;;;;;4.57;4.37;;;;;;;;;;5075647;28;20503;-66
2022/04/03 13:09:26;;;;;;;6.10;4.60;;;;;;;;;;5074941;28;20403;-57
2022/04/03 13:11:53;;;;;;;4.40;4.20;;;;;;;;;;5075913;28;20793;-56
2022/04/03 13:14:26;;;;;;;5.47;5.13;;;;;;;;;;5075854;28;20489;-60
2022/04/03 13:16:54;;;;;;;4.70;4.50;;;;;;;;;;5075781;28;20481;-57
2022/04/03 13:19:24;;;;;;;5.47;5.17;;;;;;;;;;5074301;28;20548;-56
2022/04/03 13:21:54;;;;;;;5.23;4.97;;;;;;;;;;5075851;28;20419;-57
2022/04/03 13:24:21;;;;;;;5.37;5.07;;;;;;;;;;5075725;28;20890;-55
2022/04/03 13:26:47;;;;;;;5.87;5.37;;;;;;;;;;5075725;28;20406;-58
2022/04/03 13:29:13;;;;;;;5.60;4.93;;;;;;;;;;5075484;28;20413;-56
2022/04/03 13:31:42;;;;;;;4.90;4.60;;;;;;;;;;5075403;28;20415;-55
2022/04/03 13:34:09;;;;;;;7.23;5.40;;;;;;;;;;5075446;28;20421;-56
2022/04/03 13:36:35;;;;;;;5.37;5.07;;;;;;;;;;5074092;28;20952;-58
2022/04/03 13:39:02;;;;;;;4.87;4.50;;;;;;;;;;5075236;28;20450;-56
2022/04/03 13:41:28;;;;;;;5.07;4.73;;;;;;;;;;5075244;28;20407;-58
2022/04/03 13:43:54;;;;;;;5.87;5.13;;;;;;;;;;5073914;28;20438;-58
2022/04/03 13:46:20;;;;;;;4.33;4.13;;;;;;;;;;5074188;28;20449;-58
2022/04/03 13:48:46;;;;;;;5.40;5.10;;;;;;;;;;5075114;28;20399;-55
2022/04/03 13:51:13;;;;;;;6.00;5.37;;;;;;;;;;5075055;28;20402;-55
2022/04/03 13:53:43;;;;;;;5.30;5.00;;;;;;;;;;5073612;28;20411;-55
2022/04/03 13:56:11;;;;;;;5.00;4.60;;;;;;;;;;5074935;28;20411;-63
2022/04/03 13:58:37;;;;;;;5.13;4.83;;;;;;;;;;5073548;28;20426;-61
2022/04/03 14:01:04;;;;;;;5.70;4.90;;;;;;;;;;5074958;28;20407;-56
2022/04/03 14:03:31;;;;;;;5.23;4.73;;;;;;;;;;5074872;28;20399;-56
2022/04/03 14:05:57;;;;;;;4.40;4.13;;;;;;;;;;5074790;28;20437;-60
2022/04/03 14:08:24;;;;;;;5.20;4.70;;;;;;;;;;5074797;28;20482;-57
2022/04/03 14:10:51;;;;;;;4.63;4.33;;;;;;;;;;5074908;28;20447;-60
2022/04/03 14:13:21;;;;;;;5.40;4.87;;;;;;;;;;5073500;28;20445;-57
2022/04/03 14:15:48;;;;;;;4.77;4.47;;;;;;;;;;5074880;28;20498;-57
2022/04/03 14:18:15;;;;;;;5.13;4.73;;;;;;;;;;5074496;28;20426;-56
2022/04/03 14:20:41;;;;;;;5.53;4.93;;;;;;;;;;5074254;28;20493;-55
2022/04/03 14:23:08;;;;;;;4.87;4.57;;;;;;;;;;5074526;28;20414;-55
2022/04/03 14:25:37;;;;;;;5.17;4.77;;;;;;;;;;5074354;28;20758;-60
2022/04/03 14:28:04;;;;;;;4.40;4.00;;;;;;;;;;5074330;28;20407;-59
2022/04/03 14:30:30;;;;;;;5.50;5.03;;;;;;;;;;5072996;28;20531;-55
2022/04/03 14:32:57;;;;;;;5.37;4.93;;;;;;;;;;5073111;28;20415;-58
2022/04/03 14:35:24;;;;;;;4.83;4.53;;;;;;;;;;5074204;28;20399;-55
2022/04/03 14:37:50;;;;;;;4.93;4.53;;;;;;;;;;5074272;28;20445;-59
2022/04/03 14:40:17;;;;;;;4.60;4.30;;;;;;;;;;5074098;28;20535;-53
2022/04/03 14:42:43;;;;;;;5.20;4.70;;;;;;;;;;5073393;28;20403;-60
2022/04/03 14:45:09;;;;;;;4.97;4.57;;;;;;;;;;5063531;28;20887;-58
2022/04/03 14:47:36;;;;;;;5.17;4.77;;;;;;;;;;5064174;28;20407;-55
2022/04/03 14:50:05;;;;;;;6.97;5.00;;;;;;;;;;5062290;28;20768;-61